sensor_id;sensor_type;location;lat;lon;timestamp;pressure;altitude;pressure_sealevel;temperature;humidity
77013;BME280;67260;53.130;17.982;2023-07-13T00:00:55;100730.95;;;18.31;81.35
77013;BME280;67260;53.130;17.982;2023-07-13T00:03:39;100727.20;;;18.21;81.13
77013;BME280;67260;53.130;17.982;2023-07-13T00:06:08;100727.73;;;18.14;81.37
77013;BME280;67260;53.130;17.982;2023-07-13T00:08:38;100734.00;;;18.10;81.49
77013;BME280;67260;53.130;17.982;2023-07-13T00:11:08;100734.52;;;18.03;81.21
77013;BME280;67260;53.130;17.982;2023-07-13T00:13:40;100737.66;;;17.93;81.40
77013;BME280;67260;53.130;17.982;2023-07-13T00:16:07;100743.70;;;17.89;81.60
77013;BME280;67260;53.130;17.982;2023-07-13T00:18:34;100741.73;;;17.86;81.65
77013;BME280;67260;53.130;17.982;2023-07-13T00:21:00;100740.11;;;17.85;81.63
77013;BME280;67260;53.130;17.982;2023-07-13T00:23:35;100748.06;;;17.85;81.72
77013;BME280;67260;53.130;17.982;2023-07-13T00:26:03;100742.90;;;17.84;81.72
77013;BME280;67260;53.130;17.982;2023-07-13T00:28:34;100750.36;;;17.84;81.67
77013;BME280;67260;53.130;17.982;2023-07-13T00:31:01;100748.91;;;17.84;81.59
77013;BME280;67260;53.130;17.982;2023-07-13T00:33:30;100747.66;;;17.83;81.29
77013;BME280;67260;53.130;17.982;2023-07-13T00:35:57;100750.95;;;17.78;81.20
77013;BME280;67260;53.130;17.982;2023-07-13T00:38:33;100754.42;;;17.71;81.39
77013;BME280;67260;53.130;17.982;2023-07-13T00:41:01;100753.80;;;17.63;81.57
77013;BME280;67260;53.130;17.982;2023-07-13T00:43:32;100760.52;;;17.57;81.83
77013;BME280;67260;53.130;17.982;2023-07-13T00:46:31;100764.69;;;17.56;81.97
77013;BME280;67260;53.130;17.982;2023-07-13T00:49:08;100766.30;;;17.56;82.07
77013;BME280;67260;53.130;17.982;2023-07-13T00:51:57;100772.13;;;17.54;82.14
77013;BME280;67260;53.130;17.982;2023-07-13T00:54:28;100777.84;;;17.51;82.16
77013;BME280;67260;53.130;17.982;2023-07-13T00:57:05;100782.98;;;17.50;82.09
77013;BME280;67260;53.130;17.982;2023-07-13T00:59:34;100789.73;;;17.53;82.06
77013;BME280;67260;53.130;17.982;2023-07-13T01:02:02;100790.09;;;17.55;82.29
77013;BME280;67260;53.130;17.982;2023-07-13T01:04:31;100798.27;;;17.56;82.08
77013;BME280;67260;53.130;17.982;2023-07-13T01:06:57;100793.98;;;17.52;82.03
77013;BME280;67260;53.130;17.982;2023-07-13T01:09:27;100788.17;;;17.52;82.05
77013;BME280;67260;53.130;17.982;2023-07-13T01:11:53;100787.52;;;17.52;81.81
77013;BME280;67260;53.130;17.982;2023-07-13T01:14:19;100788.02;;;17.49;81.73
77013;BME280;67260;53.130;17.982;2023-07-13T01:16:48;100783.48;;;17.46;82.00
77013;BME280;67260;53.130;17.982;2023-07-13T01:19:39;100780.14;;;17.46;81.91
77013;BME280;67260;53.130;17.982;2023-07-13T01:22:15;100775.77;;;17.48;81.81
77013;BME280;67260;53.130;17.982;2023-07-13T01:24:45;100772.80;;;17.47;81.63
77013;BME280;67260;53.130;17.982;2023-07-13T01:27:14;100770.06;;;17.47;81.85
77013;BME280;67260;53.130;17.982;2023-07-13T01:29:45;100766.54;;;17.49;81.65
77013;BME280;67260;53.130;17.982;2023-07-13T01:32:23;100774.11;;;17.49;81.49
77013;BME280;67260;53.130;17.982;2023-07-13T01:34:55;100775.36;;;17.45;81.65
77013;BME280;67260;53.130;17.982;2023-07-13T01:37:23;100777.29;;;17.44;81.49
77013;BME280;67260;53.130;17.982;2023-07-13T01:39:53;100780.67;;;17.45;81.53
77013;BME280;67260;53.130;17.982;2023-07-13T01:42:19;100780.89;;;17.40;81.46
77013;BME280;67260;53.130;17.982;2023-07-13T01:44:47;100786.23;;;17.39;81.54
77013;BME280;67260;53.130;17.982;2023-07-13T01:47:13;100790.36;;;17.38;81.36
77013;BME280;67260;53.130;17.982;2023-07-13T01:49:39;100797.58;;;17.31;81.25
77013;BME280;67260;53.130;17.982;2023-07-13T01:52:07;100804.64;;;17.25;81.38
77013;BME280;67260;53.130;17.982;2023-07-13T01:54:33;100811.45;;;17.24;81.73
77013;BME280;67260;53.130;17.982;2023-07-13T01:57:00;100811.02;;;17.24;81.73
77013;BME280;67260;53.130;17.982;2023-07-13T01:59:26;100806.48;;;17.26;81.72
77013;BME280;67260;53.130;17.982;2023-07-13T02:01:52;100800.88;;;17.25;81.79
77013;BME280;67260;53.130;17.982;2023-07-13T02:04:18;100798.26;;;17.25;81.66
77013;BME280;67260;53.130;17.982;2023-07-13T02:06:43;100793.81;;;17.26;81.63
77013;BME280;67260;53.130;17.982;2023-07-13T02:09:09;100795.73;;;17.26;81.70
77013;BME280;67260;53.130;17.982;2023-07-13T02:11:36;100796.13;;;17.23;81.69
77013;BME280;67260;53.130;17.982;2023-07-13T02:14:02;100797.70;;;17.24;81.85
77013;BME280;67260;53.130;17.982;2023-07-13T02:16:29;100793.27;;;17.25;81.81
77013;BME280;67260;53.130;17.982;2023-07-13T02:18:55;100787.23;;;17.23;81.76
77013;BME280;67260;53.130;17.982;2023-07-13T02:21:22;100779.64;;;17.22;81.69
77013;BME280;67260;53.130;17.982;2023-07-13T02:23:49;100778.05;;;17.24;81.79
77013;BME280;67260;53.130;17.982;2023-07-13T02:26:16;100774.77;;;17.23;81.49
77013;BME280;67260;53.130;17.982;2023-07-13T02:28:42;100774.27;;;17.21;81.25
77013;BME280;67260;53.130;17.982;2023-07-13T02:31:13;100771.09;;;17.17;81.48
77013;BME280;67260;53.130;17.982;2023-07-13T02:33:41;100771.02;;;17.16;81.40
77013;BME280;67260;53.130;17.982;2023-07-13T02:36:08;100774.82;;;17.11;81.31
77013;BME280;67260;53.130;17.982;2023-07-13T02:38:35;100774.46;;;17.09;81.63
77013;BME280;67260;53.130;17.982;2023-07-13T02:41:04;100774.09;;;17.08;81.76
77013;BME280;67260;53.130;17.982;2023-07-13T02:43:30;100777.19;;;17.08;81.94
77013;BME280;67260;53.130;17.982;2023-07-13T02:45:56;100784.08;;;17.09;82.04
77013;BME280;67260;53.130;17.982;2023-07-13T02:48:22;100782.77;;;17.12;82.02
77013;BME280;67260;53.130;17.982;2023-07-13T02:50:48;100779.16;;;17.14;81.78
77013;BME280;67260;53.130;17.982;2023-07-13T02:53:14;100774.55;;;17.15;81.85
77013;BME280;67260;53.130;17.982;2023-07-13T02:55:40;100773.11;;;17.16;81.72
77013;BME280;67260;53.130;17.982;2023-07-13T02:58:07;100774.27;;;17.18;81.85
77013;BME280;67260;53.130;17.982;2023-07-13T03:00:33;100779.29;;;17.20;81.52
77013;BME280;67260;53.130;17.982;2023-07-13T03:03:00;100773.27;;;17.16;81.58
77013;BME280;67260;53.130;17.982;2023-07-13T03:05:26;100767.39;;;17.13;81.85
77013;BME280;67260;53.130;17.982;2023-07-13T03:07:52;100773.48;;;17.11;81.79
77013;BME280;67260;53.130;17.982;2023-07-13T03:10:19;100774.10;;;17.10;81.96
77013;BME280;67260;53.130;17.982;2023-07-13T03:12:48;100772.60;;;17.10;82.01
77013;BME280;67260;53.130;17.982;2023-07-13T03:15:20;100768.61;;;17.09;81.87
77013;BME280;67260;53.130;17.982;2023-07-13T03:17:47;100768.56;;;17.09;81.93
77013;BME280;67260;53.130;17.982;2023-07-13T03:20:14;100769.15;;;17.13;81.92
77013;BME280;67260;53.130;17.982;2023-07-13T03:22:40;100771.30;;;17.16;81.68
77013;BME280;67260;53.130;17.982;2023-07-13T03:25:08;100778.13;;;17.17;81.45
77013;BME280;67260;53.130;17.982;2023-07-13T03:27:35;100782.35;;;17.17;81.40
77013;BME280;67260;53.130;17.982;2023-07-13T03:30:02;100792.27;;;17.19;81.40
77013;BME280;67260;53.130;17.982;2023-07-13T03:32:28;100791.93;;;17.18;81.22
77013;BME280;67260;53.130;17.982;2023-07-13T03:34:54;100787.64;;;17.18;81.21
77013;BME280;67260;53.130;17.982;2023-07-13T03:37:21;100788.77;;;17.19;81.39
77013;BME280;67260;53.130;17.982;2023-07-13T03:39:47;100789.95;;;17.23;81.37
77013;BME280;67260;53.130;17.982;2023-07-13T03:42:15;100793.11;;;17.30;81.54
77013;BME280;67260;53.130;17.982;2023-07-13T03:44:42;100796.08;;;17.40;81.40
77013;BME280;67260;53.130;17.982;2023-07-13T03:47:12;100795.52;;;17.47;81.18
77013;BME280;67260;53.130;17.982;2023-07-13T03:49:38;100795.33;;;17.48;81.17
77013;BME280;67260;53.130;17.982;2023-07-13T03:52:04;100801.26;;;17.50;80.93
77013;BME280;67260;53.130;17.982;2023-07-13T03:54:30;100803.08;;;17.50;81.02
77013;BME280;67260;53.130;17.982;2023-07-13T03:57:00;100807.84;;;17.52;80.90
77013;BME280;67260;53.130;17.982;2023-07-13T03:59:31;100810.72;;;17.51;80.70
77013;BME280;67260;53.130;17.982;2023-07-13T04:01:57;100811.02;;;17.49;80.70
77013;BME280;67260;53.130;17.982;2023-07-13T04:04:23;100809.97;;;17.47;80.83
77013;BME280;67260;53.130;17.982;2023-07-13T04:06:49;100820.22;;;17.50;80.96
77013;BME280;67260;53.130;17.982;2023-07-13T04:09:15;100822.48;;;17.55;80.82
77013;BME280;67260;53.130;17.982;2023-07-13T04:11:41;100821.91;;;17.60;80.82
77013;BME280;67260;53.130;17.982;2023-07-13T04:14:07;100822.05;;;17.67;80.53
77013;BME280;67260;53.130;17.982;2023-07-13T04:16:34;100822.51;;;17.69;80.50
77013;BME280;67260;53.130;17.982;2023-07-13T04:19:00;100824.42;;;17.79;80.41
77013;BME280;67260;53.130;17.982;2023-07-13T04:21:27;100818.59;;;17.95;80.12
77013;BME280;67260;53.130;17.982;2023-07-13T04:23:54;100805.86;;;18.01;79.77
77013;BME280;67260;53.130;17.982;2023-07-13T04:26:20;100806.14;;;17.97;79.87
77013;BME280;67260;53.130;17.982;2023-07-13T04:28:47;100807.91;;;18.13;79.78
77013;BME280;67260;53.130;17.982;2023-07-13T04:31:16;100813.63;;;18.32;79.58
77013;BME280;67260;53.130;17.982;2023-07-13T04:33:42;100826.98;;;18.64;78.73
77013;BME280;67260;53.130;17.982;2023-07-13T04:36:09;100830.90;;;18.92;77.83
77013;BME280;67260;53.130;17.982;2023-07-13T04:38:35;100832.00;;;18.96;77.91
77013;BME280;67260;53.130;17.982;2023-07-13T04:41:04;100827.80;;;18.97;77.94
77013;BME280;67260;53.130;17.982;2023-07-13T04:43:32;100829.41;;;19.14;77.48
77013;BME280;67260;53.130;17.982;2023-07-13T04:46:04;100831.19;;;19.51;76.93
77013;BME280;67260;53.130;17.982;2023-07-13T04:48:31;100842.41;;;19.90;75.91
77013;BME280;67260;53.130;17.982;2023-07-13T04:50:58;100854.00;;;20.28;75.18
77013;BME280;67260;53.130;17.982;2023-07-13T04:53:25;100854.48;;;20.58;74.44
77013;BME280;67260;53.130;17.982;2023-07-13T04:55:51;100861.10;;;20.85;74.12
77013;BME280;67260;53.130;17.982;2023-07-13T04:58:17;100863.65;;;21.13;73.68
77013;BME280;67260;53.130;17.982;2023-07-13T05:00:43;100858.99;;;21.49;72.90
77013;BME280;67260;53.130;17.982;2023-07-13T05:03:09;100865.59;;;21.62;72.18
77013;BME280;67260;53.130;17.982;2023-07-13T05:05:35;100868.29;;;21.64;71.50
77013;BME280;67260;53.130;17.982;2023-07-13T05:08:01;100870.42;;;21.83;71.07
77013;BME280;67260;53.130;17.982;2023-07-13T05:10:28;100871.84;;;22.02;70.71
77013;BME280;67260;53.130;17.982;2023-07-13T05:12:54;100872.99;;;21.86;70.56
77013;BME280;67260;53.130;17.982;2023-07-13T05:15:23;100867.31;;;21.66;70.72
77013;BME280;67260;53.130;17.982;2023-07-13T05:17:49;100868.78;;;21.48;70.33
77013;BME280;67260;53.130;17.982;2023-07-13T05:20:17;100866.69;;;21.43;70.43
77013;BME280;67260;53.130;17.982;2023-07-13T05:22:44;100862.95;;;21.60;70.20
77013;BME280;67260;53.130;17.982;2023-07-13T05:25:10;100861.66;;;21.72;70.11
77013;BME280;67260;53.130;17.982;2023-07-13T05:27:36;100861.98;;;22.14;69.07
77013;BME280;67260;53.130;17.982;2023-07-13T05:30:03;100868.83;;;22.79;67.65
77013;BME280;67260;53.130;17.982;2023-07-13T05:32:29;100873.13;;;23.43;66.22
77013;BME280;67260;53.130;17.982;2023-07-13T05:34:55;100881.35;;;24.17;64.75
77013;BME280;67260;53.130;17.982;2023-07-13T05:37:21;100886.12;;;24.91;63.37
77013;BME280;67260;53.130;17.982;2023-07-13T05:39:47;100889.13;;;25.66;61.35
77013;BME280;67260;53.130;17.982;2023-07-13T05:42:13;100885.96;;;26.36;59.73
77013;BME280;67260;53.130;17.982;2023-07-13T05:44:39;100886.19;;;26.46;59.01
77013;BME280;67260;53.130;17.982;2023-07-13T05:47:06;100878.15;;;26.16;58.86
77013;BME280;67260;53.130;17.982;2023-07-13T05:49:32;100873.03;;;26.23;58.50
77013;BME280;67260;53.130;17.982;2023-07-13T05:51:58;100873.09;;;27.02;56.98
77013;BME280;67260;53.130;17.982;2023-07-13T05:54:24;100871.34;;;27.72;55.26
77013;BME280;67260;53.130;17.982;2023-07-13T05:56:50;100880.16;;;28.16;53.07
77013;BME280;67260;53.130;17.982;2023-07-13T05:59:17;100884.05;;;28.26;53.30
77013;BME280;67260;53.130;17.982;2023-07-13T06:01:44;100880.66;;;27.56;53.95
77013;BME280;67260;53.130;17.982;2023-07-13T06:04:10;100884.23;;;27.19;54.11
77013;BME280;67260;53.130;17.982;2023-07-13T06:06:36;100887.92;;;27.69;52.93
77013;BME280;67260;53.130;17.982;2023-07-13T06:09:02;100887.30;;;28.23;51.41
77013;BME280;67260;53.130;17.982;2023-07-13T06:11:29;100880.13;;;28.93;50.26
77013;BME280;67260;53.130;17.982;2023-07-13T06:13:56;100874.17;;;29.86;48.38
77013;BME280;67260;53.130;17.982;2023-07-13T06:16:23;100870.91;;;30.26;47.01
77013;BME280;67260;53.130;17.982;2023-07-13T06:18:49;100868.55;;;30.79;45.35
77013;BME280;67260;53.130;17.982;2023-07-13T06:21:17;100868.52;;;31.30;44.10
77013;BME280;67260;53.130;17.982;2023-07-13T06:23:45;100873.91;;;31.66;43.41
77013;BME280;67260;53.130;17.982;2023-07-13T06:26:17;100877.73;;;32.01;42.33
77013;BME280;67260;53.130;17.982;2023-07-13T06:28:44;100883.08;;;32.53;42.28
77013;BME280;67260;53.130;17.982;2023-07-13T06:31:13;100881.86;;;33.13;40.63
77013;BME280;67260;53.130;17.982;2023-07-13T06:33:39;100879.42;;;33.68;38.72
77013;BME280;67260;53.130;17.982;2023-07-13T06:36:06;100878.86;;;34.07;37.70
77013;BME280;67260;53.130;17.982;2023-07-13T06:38:34;100878.69;;;34.64;37.11
77013;BME280;67260;53.130;17.982;2023-07-13T06:41:00;100880.17;;;34.72;36.32
77013;BME280;67260;53.130;17.982;2023-07-13T06:43:26;100876.80;;;35.04;34.46
77013;BME280;67260;53.130;17.982;2023-07-13T06:45:55;100879.14;;;33.60;35.81
77013;BME280;67260;53.130;17.982;2023-07-13T06:48:22;100883.42;;;32.88;36.44
77013;BME280;67260;53.130;17.982;2023-07-13T06:50:49;100890.23;;;32.10;37.26
77013;BME280;67260;53.130;17.982;2023-07-13T06:53:20;100891.30;;;30.97;38.31
77013;BME280;67260;53.130;17.982;2023-07-13T06:55:47;100895.94;;;30.06;39.38
77013;BME280;67260;53.130;17.982;2023-07-13T06:58:16;100903.14;;;29.46;40.05
77013;BME280;67260;53.130;17.982;2023-07-13T07:00:42;100899.16;;;29.01;40.38
77013;BME280;67260;53.130;17.982;2023-07-13T07:03:10;100902.11;;;28.61;41.18
77013;BME280;67260;53.130;17.982;2023-07-13T07:05:37;100896.28;;;28.24;41.90
77013;BME280;67260;53.130;17.982;2023-07-13T07:08:06;100893.96;;;27.85;41.96
77013;BME280;67260;53.130;17.982;2023-07-13T07:10:37;100897.48;;;27.46;42.36
77013;BME280;67260;53.130;17.982;2023-07-13T07:13:03;100903.27;;;27.13;43.02
77013;BME280;67260;53.130;17.982;2023-07-13T07:15:30;100911.36;;;26.72;43.66
77013;BME280;67260;53.130;17.982;2023-07-13T07:17:57;100911.23;;;26.33;45.56
77013;BME280;67260;53.130;17.982;2023-07-13T07:20:23;100915.36;;;26.06;46.40
77013;BME280;67260;53.130;17.982;2023-07-13T07:22:49;100909.61;;;25.82;47.03
77013;BME280;67260;53.130;17.982;2023-07-13T07:25:15;100903.00;;;25.73;46.34
77013;BME280;67260;53.130;17.982;2023-07-13T07:27:42;100909.14;;;27.48;44.13
77013;BME280;67260;53.130;17.982;2023-07-13T07:30:08;100905.21;;;29.61;41.74
77013;BME280;67260;53.130;17.982;2023-07-13T07:32:34;100901.42;;;30.68;40.12
77013;BME280;67260;53.130;17.982;2023-07-13T07:35:00;100902.63;;;31.00;39.13
77013;BME280;67260;53.130;17.982;2023-07-13T07:37:26;100899.92;;;31.95;37.67
77013;BME280;67260;53.130;17.982;2023-07-13T07:39:52;100902.03;;;33.01;36.19
77013;BME280;67260;53.130;17.982;2023-07-13T07:42:18;100899.10;;;33.68;34.75
77013;BME280;67260;53.130;17.982;2023-07-13T07:44:47;100898.38;;;34.73;32.98
77013;BME280;67260;53.130;17.982;2023-07-13T07:47:14;100896.08;;;35.91;30.95
77013;BME280;67260;53.130;17.982;2023-07-13T07:49:41;100896.91;;;36.55;30.00
77013;BME280;67260;53.130;17.982;2023-07-13T07:52:07;100899.70;;;37.22;28.93
77013;BME280;67260;53.130;17.982;2023-07-13T07:54:33;100903.13;;;37.91;27.48
77013;BME280;67260;53.130;17.982;2023-07-13T07:56:59;100904.30;;;38.41;26.65
77013;BME280;67260;53.130;17.982;2023-07-13T07:59:25;100902.04;;;38.19;26.68
77013;BME280;67260;53.130;17.982;2023-07-13T08:01:51;100897.33;;;37.12;26.97
77013;BME280;67260;53.130;17.982;2023-07-13T08:04:17;100902.34;;;36.61;27.36
77013;BME280;67260;53.130;17.982;2023-07-13T08:06:44;100901.83;;;36.57;27.73
77013;BME280;67260;53.130;17.982;2023-07-13T08:09:10;100902.94;;;35.95;28.58
77013;BME280;67260;53.130;17.982;2023-07-13T08:11:36;100905.48;;;35.53;28.42
77013;BME280;67260;53.130;17.982;2023-07-13T08:14:03;100901.02;;;35.35;28.30
77013;BME280;67260;53.130;17.982;2023-07-13T08:16:29;100900.45;;;35.65;28.29
77013;BME280;67260;53.130;17.982;2023-07-13T08:18:55;100897.42;;;36.25;27.15
77013;BME280;67260;53.130;17.982;2023-07-13T08:21:21;100895.98;;;36.36;27.09
77013;BME280;67260;53.130;17.982;2023-07-13T08:23:47;100898.02;;;35.62;28.05
77013;BME280;67260;53.130;17.982;2023-07-13T08:26:13;100897.57;;;35.95;27.21
77013;BME280;67260;53.130;17.982;2023-07-13T08:28:40;100892.14;;;36.54;26.66
77013;BME280;67260;53.130;17.982;2023-07-13T08:31:07;100892.97;;;37.03;26.35
77013;BME280;67260;53.130;17.982;2023-07-13T08:33:35;100884.90;;;37.53;25.64
77013;BME280;67260;53.130;17.982;2023-07-13T08:36:02;100881.90;;;38.09;25.27
77013;BME280;67260;53.130;17.982;2023-07-13T08:38:28;100881.27;;;38.28;24.39
77013;BME280;67260;53.130;17.982;2023-07-13T08:40:56;100875.69;;;38.52;24.02
77013;BME280;67260;53.130;17.982;2023-07-13T08:43:28;100870.50;;;38.68;23.87
77013;BME280;67260;53.130;17.982;2023-07-13T08:46:33;100873.48;;;38.33;23.99
77013;BME280;67260;53.130;17.982;2023-07-13T08:49:11;100875.08;;;36.95;24.20
77013;BME280;67260;53.130;17.982;2023-07-13T08:51:52;100873.05;;;35.66;24.88
77013;BME280;67260;53.130;17.982;2023-07-13T08:54:29;100873.16;;;34.44;26.38
77013;BME280;67260;53.130;17.982;2023-07-13T08:57:09;100883.54;;;33.33;27.54
77013;BME280;67260;53.130;17.982;2023-07-13T08:59:39;100887.85;;;32.25;28.81
77013;BME280;67260;53.130;17.982;2023-07-13T09:05:04;100889.34;;;30.43;31.51
77013;BME280;67260;53.130;17.982;2023-07-13T09:10:58;100895.01;;;29.25;33.88
77013;BME280;67260;53.130;17.982;2023-07-13T09:13:41;100893.16;;;29.39;34.34
77013;BME280;67260;53.130;17.982;2023-07-13T09:16:10;100890.45;;;29.32;34.77
77013;BME280;67260;53.130;17.982;2023-07-13T09:18:44;100884.39;;;28.86;35.28
77013;BME280;67260;53.130;17.982;2023-07-13T09:21:22;100882.15;;;28.71;35.58
77013;BME280;67260;53.130;17.982;2023-07-13T09:23:53;100887.59;;;29.46;34.58
77013;BME280;67260;53.130;17.982;2023-07-13T09:26:22;100887.66;;;30.38;32.45
77013;BME280;67260;53.130;17.982;2023-07-13T09:28:54;100891.36;;;30.39;32.36
77013;BME280;67260;53.130;17.982;2023-07-13T09:31:32;100885.96;;;30.37;32.42
77013;BME280;67260;53.130;17.982;2023-07-13T09:34:00;100886.56;;;30.09;32.12
77013;BME280;67260;53.130;17.982;2023-07-13T09:36:31;100890.90;;;29.47;32.02
77013;BME280;67260;53.130;17.982;2023-07-13T09:39:24;100889.81;;;29.13;32.49
77013;BME280;67260;53.130;17.982;2023-07-13T09:44:31;100888.16;;;29.95;31.85
77013;BME280;67260;53.130;17.982;2023-07-13T09:47:00;100893.05;;;30.53;30.64
77013;BME280;67260;53.130;17.982;2023-07-13T09:49:33;100886.73;;;31.05;30.39
77013;BME280;67260;53.130;17.982;2023-07-13T09:52:06;100879.44;;;31.52;29.25
77013;BME280;67260;53.130;17.982;2023-07-13T09:54:38;100876.53;;;31.84;29.30
77013;BME280;67260;53.130;17.982;2023-07-13T09:57:14;100876.56;;;32.01;29.47
77013;BME280;67260;53.130;17.982;2023-07-13T09:59:50;100865.60;;;32.07;29.36
77013;BME280;67260;53.130;17.982;2023-07-13T10:02:32;100864.33;;;32.23;29.32
77013;BME280;67260;53.130;17.982;2023-07-13T10:05:05;100864.48;;;32.11;29.74
77013;BME280;67260;53.130;17.982;2023-07-13T10:07:37;100864.46;;;31.95;29.53
77013;BME280;67260;53.130;17.982;2023-07-13T10:10:18;100866.72;;;31.64;29.86
77013;BME280;67260;53.130;17.982;2023-07-13T10:12:50;100867.16;;;31.74;29.87
77013;BME280;67260;53.130;17.982;2023-07-13T10:15:25;100864.24;;;32.17;29.08
77013;BME280;67260;53.130;17.982;2023-07-13T10:17:56;100866.50;;;31.82;29.97
77013;BME280;67260;53.130;17.982;2023-07-13T10:20:29;100864.49;;;31.52;30.17
77013;BME280;67260;53.130;17.982;2023-07-13T10:23:05;100865.80;;;31.70;29.20
77013;BME280;67260;53.130;17.982;2023-07-13T10:25:48;100864.65;;;31.81;29.10
77013;BME280;67260;53.130;17.982;2023-07-13T10:30:52;100865.69;;;31.45;28.98
77013;BME280;67260;53.130;17.982;2023-07-13T10:33:20;100862.98;;;30.95;28.56
77013;BME280;67260;53.130;17.982;2023-07-13T10:35:48;100863.13;;;30.33;29.67
77013;BME280;67260;53.130;17.982;2023-07-13T10:38:33;100864.16;;;29.90;30.09
77013;BME280;67260;53.130;17.982;2023-07-13T10:41:26;100865.98;;;29.53;30.37
77013;BME280;67260;53.130;17.982;2023-07-13T10:44:15;100862.89;;;29.04;30.42
77013;BME280;67260;53.130;17.982;2023-07-13T10:46:44;100860.15;;;28.96;30.55
77013;BME280;67260;53.130;17.982;2023-07-13T10:49:11;100853.86;;;29.13;30.24
77013;BME280;67260;53.130;17.982;2023-07-13T10:51:43;100862.26;;;29.36;30.51
77013;BME280;67260;53.130;17.982;2023-07-13T10:54:18;100861.66;;;30.15;30.16
77013;BME280;67260;53.130;17.982;2023-07-13T10:57:25;100858.08;;;30.90;29.15
77013;BME280;67260;53.130;17.982;2023-07-13T11:02:36;100849.45;;;30.60;29.18
77013;BME280;67260;53.130;17.982;2023-07-13T11:05:27;100853.08;;;30.82;29.15
77013;BME280;67260;53.130;17.982;2023-07-13T11:08:02;100856.23;;;31.65;28.45
77013;BME280;67260;53.130;17.982;2023-07-13T11:10:50;100852.15;;;32.23;28.08
77013;BME280;67260;53.130;17.982;2023-07-13T11:13:39;100857.95;;;32.79;26.88
77013;BME280;67260;53.130;17.982;2023-07-13T11:21:28;100865.53;;;32.95;27.13
77013;BME280;67260;53.130;17.982;2023-07-13T11:24:16;100861.40;;;32.68;27.25
77013;BME280;67260;53.130;17.982;2023-07-13T11:26:51;100857.37;;;32.49;27.17
77013;BME280;67260;53.130;17.982;2023-07-13T11:31:51;100855.35;;;31.60;27.91
77013;BME280;67260;53.130;17.982;2023-07-13T11:34:26;100857.95;;;30.95;28.45
77013;BME280;67260;53.130;17.982;2023-07-13T11:36:53;100864.98;;;30.04;29.47
77013;BME280;67260;53.130;17.982;2023-07-13T11:39:32;100868.88;;;29.38;30.25
77013;BME280;67260;53.130;17.982;2023-07-13T11:42:02;100867.75;;;28.92;30.67
77013;BME280;67260;53.130;17.982;2023-07-13T11:44:31;100869.68;;;28.64;31.20
77013;BME280;67260;53.130;17.982;2023-07-13T11:47:00;100872.86;;;28.44;31.64
77013;BME280;67260;53.130;17.982;2023-07-13T11:49:30;100877.45;;;28.16;32.14
77013;BME280;67260;53.130;17.982;2023-07-13T11:51:58;100876.11;;;27.84;32.92
77013;BME280;67260;53.130;17.982;2023-07-13T11:54:33;100873.08;;;27.77;33.35
77013;BME280;67260;53.130;17.982;2023-07-13T11:57:17;100869.05;;;27.97;33.59
77013;BME280;67260;53.130;17.982;2023-07-13T11:59:53;100873.77;;;28.20;33.83
77013;BME280;67260;53.130;17.982;2023-07-13T12:02:33;100868.77;;;28.39;33.92
77013;BME280;67260;53.130;17.982;2023-07-13T12:05:01;100865.24;;;29.06;33.27
77013;BME280;67260;53.130;17.982;2023-07-13T12:07:30;100855.98;;;29.34;32.81
77013;BME280;67260;53.130;17.982;2023-07-13T12:10:03;100849.85;;;29.63;32.50
77013;BME280;67260;53.130;17.982;2023-07-13T12:12:54;100854.34;;;29.93;32.37
77013;BME280;67260;53.130;17.982;2023-07-13T12:15:23;100847.52;;;30.01;32.73
77013;BME280;67260;53.130;17.982;2023-07-13T12:17:55;100851.02;;;30.24;31.07
77013;BME280;67260;53.130;17.982;2023-07-13T12:20:37;100847.72;;;30.39;30.89
77013;BME280;67260;53.130;17.982;2023-07-13T12:23:27;100850.26;;;30.61;30.89
77013;BME280;67260;53.130;17.982;2023-07-13T12:25:55;100850.52;;;30.91;29.82
77013;BME280;67260;53.130;17.982;2023-07-13T12:28:37;100848.04;;;31.29;29.77
77013;BME280;67260;53.130;17.982;2023-07-13T12:31:05;100842.50;;;31.50;29.38
77013;BME280;67260;53.130;17.982;2023-07-13T12:33:33;100837.05;;;31.34;29.41
77013;BME280;67260;53.130;17.982;2023-07-13T12:36:05;100844.50;;;31.30;29.24
77013;BME280;67260;53.130;17.982;2023-07-13T12:38:32;100841.67;;;31.01;29.17
77013;BME280;67260;53.130;17.982;2023-07-13T12:41:01;100843.85;;;30.61;29.61
77013;BME280;67260;53.130;17.982;2023-07-13T12:43:33;100839.18;;;30.32;30.03
77013;BME280;67260;53.130;17.982;2023-07-13T12:46:14;100844.16;;;30.05;30.43
77013;BME280;67260;53.130;17.982;2023-07-13T12:48:42;100842.09;;;29.62;30.71
77013;BME280;67260;53.130;17.982;2023-07-13T12:51:12;100850.13;;;29.25;30.91
77013;BME280;67260;53.130;17.982;2023-07-13T12:53:41;100850.28;;;28.89;31.21
77013;BME280;67260;53.130;17.982;2023-07-13T12:56:18;100856.64;;;28.52;31.83
77013;BME280;67260;53.130;17.982;2023-07-13T12:58:46;100858.70;;;28.21;32.42
77013;BME280;67260;53.130;17.982;2023-07-13T13:01:14;100859.90;;;27.98;32.86
77013;BME280;67260;53.130;17.982;2023-07-13T13:03:49;100859.56;;;27.72;33.22
77013;BME280;67260;53.130;17.982;2023-07-13T13:08:51;100860.58;;;27.15;33.87
77013;BME280;67260;53.130;17.982;2023-07-13T13:11:20;100862.09;;;26.95;34.13
77013;BME280;67260;53.130;17.982;2023-07-13T13:13:46;100855.51;;;26.84;34.50
77013;BME280;67260;53.130;17.982;2023-07-13T13:21:36;100853.59;;;26.71;34.88
77013;BME280;67260;53.130;17.982;2023-07-13T13:24:04;100851.01;;;26.67;35.11